Date,TemperatureHighF,TemperatureAvgF,TemperatureLowF,DewpointHighF,DewpointAvgF,DewpointLowF,HumidityHigh,HumidityAvg,HumidityLow,PressureMaxIn,PressureMinIn,WindSpeedMaxMPH,WindSpeedAvgMPH,GustSpeedMaxMPH,PrecipitationSumIn
2013-1-1,17.2,6.3,-9.2,10.3,1.1,-13.0,95,80,55,30.14,29.97,20,7,20,0.00
2013-1-2,19.8,13.9,11.5,15.5,12.5,10.3,99,94,82,29.97,29.91,17,8,17,0.00
2013-1-3,24.4,17.4,11.7,18.8,12.1,7.0,99,80,64,30.07,29.88,26,13,26,0.00
2013-1-4,41.0,19.6,10.2,24.4,13.7,8.2,94,80,47,30.09,29.87,21,7,21,0.00
2013-1-5,37.8,19.4,4.5,22.8,14.6,-15.2,99,83,10,30.09,29.81,58,4,58,0.00
2013-1-6,32.2,20.0,5.4,24.4,17.9,3.1,99,92,64,30.13,29.85,15,6,15,0.00
2013-1-7,36.7,25.7,12.4,25.3,19.2,7.6,90,77,62,30.04,29.77,30,15,30,0.00
2013-1-8,44.1,25.3,5.7,29.2,20.6,3.9,99,83,51,30.02,29.71,26,7,26,0.00
2013-1-9,36.5,30.9,28.8,28.8,26.0,22.4,86,82,57,30.17,29.75,34,16,34,0.00
2013-1-10,43.2,33.2,17.4,32.7,20.0,15.1,99,62,34,30.35,29.79,20,6,20,0.15
2013-1-11,39.7,35.7,32.9,39.5,35.5,32.7,99,99,99,29.79,29.43,23,8,23,0.02
2013-1-12,42.6,25.1,11.3,42.2,22.2,6.4,99,88,78,29.95,29.38,37,16,37,0.02
2013-1-13,15.1,8.9,3.7,7.1,3.8,0.3,86,80,66,30.08,29.91,17,8,17,0.00
2013-1-14,9.7,3.2,-4.0,3.1,-0.9,-7.6,87,83,74,30.27,30.08,20,7,20,0.00
2013-1-15,26.4,14.6,-1.7,16.0,7.3,-26.3,90,75,10,30.25,29.77,58,12,58,0.01
2013-1-16,27.0,21.4,7.9,25.2,17.2,1.1,99,84,67,30.08,29.54,31,15,31,0.00
2013-1-17,13.1,1.1,-11.0,2.4,-6.0,-37.1,82,73,10,30.27,30.08,58,8,58,0.00
2013-1-18,21.4,11.7,-11.2,19.7,9.0,-15.9,95,88,79,30.24,29.71,13,3,13,0.00
2013-1-19,33.1,19.0,1.4,30.7,17.2,-2.0,99,93,77,29.91,29.51,39,12,39,0.00
2013-1-20,8.1,-2.1,-9.9,-0.7,-7.6,-14.7,86,77,59,30.17,29.91,24,10,24,0.00
2013-1-21,-9.2,-14.5,-21.1,-13.7,-21.4,-27.3,81,71,58,30.10,30.02,24,10,24,0.00
2013-1-22,4.5,-10.7,-21.1,-9.4,-18.8,-51.0,76,67,10,30.20,30.09,58,8,58,0.00
2013-1-23,8.8,-8.4,-24.3,0.8,-13.8,-30.2,84,76,68,30.17,29.98,23,7,23,0.00
2013-1-24,4.8,-1.1,-22.4,1.6,-6.7,-27.5,87,77,68,30.54,30.16,15,4,15,0.00
2013-1-25,20.8,10.2,4.8,12.5,6.4,1.5,90,84,68,30.16,29.85,15,6,15,0.00
2013-1-26,25.5,13.6,6.3,14.3,8.3,3.1,87,80,59,30.30,30.13,15,5,15,0.00
2013-1-27,32.5,26.4,16.0,26.7,22.1,10.6,99,85,65,30.17,29.83,15,5,15,0.00
2013-1-28,40.5,28.1,23.2,31.9,26.7,22.9,99,95,71,29.88,29.72,12,1,12,0.07
2013-1-29,34.5,31.0,25.5,34.3,30.7,25.0,99,99,98,29.72,29.50,17,1,17,0.05
2013-1-30,25.5,20.6,13.3,25.0,19.3,11.6,99,95,91,29.65,29.46,0,0,0,0.00
2013-1-31,12.0,5.0,-0.8,7.4,-0.6,-37.8,91,78,14,29.99,24.65,46,0,46,0.12
2013-2-1,4.8,-6.6,-18.4,-5.1,-13.6,-53.2,82,71,14,30.11,26.92,0,0,2,0.00
2013-2-2,24.3,0.1,-20.2,7.4,-7.4,-25.4,84,71,44,30.06,29.89,0,0,0,0.00
2013-2-3,14.0,2.3,-14.6,1.6,-5.6,-20.0,84,69,53,29.94,29.84,0,0,0,0.00
2013-2-4,21.7,-5.8,-28.7,2.0,-15.3,-34.9,84,65,34,29.95,29.76,10,1,10,0.00
2013-2-5,23.2,7.8,-12.1,15.5,4.0,-16.5,93,84,68,30.02,29.61,18,6,18,0.00
2013-2-6,19.8,5.8,-12.6,18.2,2.2,-16.8,98,85,73,30.10,30.01,13,2,13,0.00
2013-2-7,22.6,19.2,14.4,20.7,18.1,12.2,99,95,91,30.23,30.06,14,2,14,0.00
2013-2-8,37.9,14.4,0.3,18.8,8.4,-3.4,94,79,42,30.34,30.23,8,1,8,0.02
2013-2-9,29.5,15.6,0.7,19.7,12.8,-2.3,99,89,66,30.26,30.00,21,7,21,0.00
2013-2-10,31.8,26.0,19.2,31.4,25.8,19.0,99,99,99,30.02,29.30,13,3,13,0.00
2013-2-11,30.7,24.9,18.3,30.5,24.1,16.6,99,97,92,29.89,29.27,18,6,18,0.00
2013-2-12,23.4,18.4,13.6,21.6,16.4,12.5,99,92,86,29.92,29.71,16,7,16,0.00
2013-2-13,41.9,28.6,17.4,31.8,24.8,16.8,98,86,66,29.71,29.60,12,5,12,0.09
2013-2-14,31.8,21.3,12.0,26.7,18.2,7.8,99,88,79,30.01,29.63,16,3,16,0.00
2013-2-15,18.3,7.7,-6.5,9.5,2.1,-10.5,92,78,56,30.14,30.01,18,6,18,0.00
2013-2-16,22.1,-3.2,-20.0,8.3,-10.1,-25.5,91,73,49,30.11,30.07,14,2,14,0.00
2013-2-17,26.4,3.8,-26.1,9.2,-5.9,-32.2,85,65,45,30.10,29.78,21,8,21,0.01
2013-2-18,32.0,24.3,16.7,26.1,20.1,9.5,99,84,73,29.78,29.48,21,8,21,0.00
2013-2-19,19.6,7.1,2.1,18.6,3.8,-2.5,97,86,70,30.13,29.53,25,14,25,0.00
2013-2-20,11828.3,10.6,-13.2,99.9,8.5,-17.8,91,88,10,30.34,30.13,58,3,58,0.00
2013-2-21,39.2,22.4,9.9,21.8,15.1,8.0,96,76,45,30.42,30.13,12,4,12,0.05
2013-2-22,28.6,21.4,17.4,24.1,19.2,16.3,96,91,82,30.13,29.77,12,2,12,0.00
2013-2-23,38.7,23.6,13.5,30.2,21.2,12.3,99,91,70,29.86,29.74,5,0,5,0.00
2013-2-24,33.4,24.9,8.8,27.1,20.8,7.2,99,85,67,30.07,29.86,1,0,1,0.00
2013-2-25,33.4,23.1,6.3,27.0,20.1,4.4,96,88,72,30.10,30.03,14,3,14,0.00
2013-2-26,50.9,29.3,9.9,30.6,22.8,8.7,99,80,42,30.08,29.89,13,3,13,0.07
2013-2-27,32.4,28.7,27.0,27.0,25.3,23.2,93,87,78,29.89,29.83,13,5,13,0.00
2013-2-28,29.8,23.8,23.4,26.7,20.9,20.3,89,89,88,30.08,29.85,10,5,10,0.00
2013-3-1,36.1,28.1,16.2,20.5,12.4,8.6,88,54,32,30.30,30.04,12,4,12,0.01
2013-3-2,28.6,-2.9,-7.1,10.9,-6.8,-11.1,88,83,47,30.27,30.25,2,0,2,0.01
2013-3-15,33.6,24.3,6.1,19.2,13.8,3.3,88,66,55,30.26,29.96,4,0,1,0.01
2013-3-16,23.0,17.6,8.1,12.6,7.9,0.2,80,65,57,30.13,29.97,20,11,20,0.00
2013-3-17,34.2,16.2,-11.4,7.8,0.8,-16.1,85,54,26,30.21,29.95,17,7,17,0.00
2013-3-18,28.4,21.4,14.7,26.3,17.5,7.6,98,85,66,29.95,29.49,23,10,23,0.00
2013-3-19,28.2,17.4,10.2,14.0,8.9,4.3,91,71,44,29.92,29.49,34,18,34,0.00
2013-3-20,20.7,11.8,4.1,8.0,4.2,-0.4,82,72,55,30.01,29.90,23,12,23,0.00
2013-3-21,38.3,18.3,-2.4,17.6,9.1,-8.0,88,70,38,30.00,29.96,13,4,13,0.00
2013-3-22,32.4,4.5,-11.6,23.0,-1.6,-17.2,81,76,65,30.03,29.99,7,1,7,0.00
2013-3-24,36.5,26.8,12.0,24.5,19.1,8.9,88,73,59,30.05,29.95,10,3,10,0.00
2013-3-25,37.9,24.0,7.7,27.7,18.3,4.9,98,80,57,30.15,29.96,16,2,16,0.00
2013-3-26,41.4,28.9,18.7,29.9,21.9,16.2,98,77,52,30.24,30.14,10,2,10,0.01
2013-3-27,50.0,32.5,13.3,24.6,18.8,8.0,86,61,29,30.29,30.23,20,3,20,0.00
2013-3-28,55.0,27.6,3.4,24.5,13.3,-0.4,93,61,24,30.31,30.25,15,2,15,0.00
2013-3-29,56.1,30.3,7.0,28.1,16.6,3.7,94,63,22,30.29,30.12,20,3,20,0.00
2013-3-30,41.0,35.7,30.9,40.1,33.0,21.8,99,91,61,30.11,29.75,15,6,15,0.38
2013-3-31,38.7,30.2,19.6,34.8,23.8,9.5,99,78,52,29.93,29.65,28,8,28,0.00
2013-4-1,35.4,23.5,12.9,14.5,9.3,5.4,81,56,33,30.10,29.93,23,12,23,0.00
2013-4-2,43.0,25.0,10.4,19.4,10.6,3.5,82,58,28,30.29,30.09,17,6,17,0.00
2013-4-3,44.6,24.0,-0.9,19.9,7.1,-4.9,88,54,21,30.38,30.04,26,9,26,0.00
2013-4-4,50.2,38.3,24.4,32.7,23.7,16.1,77,57,34,30.11,29.94,30,11,30,0.00
2013-4-5,50.9,28.6,12.2,24.0,15.9,7.9,91,64,19,30.25,30.07,14,2,14,0.00
2013-4-6,39.7,32.8,29.1,35.3,31.1,22.0,99,94,64,30.08,29.57,18,5,18,0.30
2013-4-7,47.7,34.7,28.6,36.3,30.2,25.9,99,85,53,29.93,29.62,9,2,9,0.13
2013-4-8,43.0,35.1,29.3,39.9,34.2,27.5,99,97,87,30.03,29.79,7,1,7,0.25
2013-4-9,34.7,33.9,32.2,34.4,33.7,31.9,99,99,99,30.11,30.01,7,3,7,0.00
2013-4-10,45.0,34.7,29.7,34.4,27.7,13.1,99,80,34,30.13,30.06,13,5,13,0.00
2013-4-11,36.0,29.8,24.8,27.0,21.4,15.1,95,71,51,30.06,29.76,17,6,17,0.02
2013-4-12,41.0,28.1,23.9,30.2,25.3,22.3,97,90,64,29.77,29.67,7,1,7,0.17
2013-4-13,41.0,26.9,8.8,29.0,21.4,5.1,98,81,55,29.96,29.73,15,2,15,0.07
2013-4-14,47.3,25.6,1.6,33.5,19.5,-1.6,99,80,44,30.00,29.67,13,2,13,0.15
2013-4-15,42.1,35.2,32.4,37.9,30.0,25.7,99,82,57,29.87,29.58,34,12,34,0.28
2013-4-16,51.3,36.2,23.9,33.7,27.6,20.1,96,72,42,30.36,29.86,22,7,22,0.00
2013-4-17,47.1,33.2,21.0,30.7,26.0,19.6,99,77,48,30.38,30.01,13,2,13,0.00
2013-4-18,35.6,32.1,29.1,34.9,31.7,28.9,99,98,90,30.01,29.32,8,1,8,0.05
2013-4-19,32.2,27.3,24.3,28.9,25.4,20.3,99,93,73,29.53,29.25,0,0,0,0.00
2013-4-20,45.5,28.1,-1.5,24.1,16.0,-4.6,94,64,32,30.34,30.03,9,1,9,0.38
2013-4-21,37.2,27.2,9.3,32.7,23.3,6.5,99,85,73,30.36,30.10,32,9,32,0.02
2013-4-22,56.7,38.3,29.3,38.6,31.8,23.9,99,81,38,30.21,30.07,12,4,12,0.14
2013-4-23,42.8,31.1,13.6,32.0,26.3,11.3,99,84,54,30.07,29.95,20,2,20,0.24
2013-4-24,48.4,29.2,3.6,32.1,19.5,0.8,97,71,42,29.99,29.86,26,7,26,0.01
2013-4-25,50.9,38.5,28.6,32.7,26.1,17.6,97,66,30,30.18,29.89,21,9,21,0.01
2013-4-26,61.5,42.1,29.1,38.0,32.2,22.8,99,71,42,30.17,30.05,21,8,21,0.11
2013-4-27,70.2,56.1,35.1,41.5,33.6,-16.2,85,47,10,30.11,29.96,58,10,58,0.00
2013-4-28,66.2,50.1,33.3,49.9,38.2,-17.6,99,70,10,29.97,29.76,58,10,58,0.30
2013-4-29,72.9,54.4,34.7,63.0,45.2,34.4,99,76,36,29.83,29.70,14,3,14,0.07
2013-4-30,74.5,57.2,39.9,58.6,46.2,34.2,99,71,36,29.93,29.52,31,8,31,0.00
2013-5-1,45.5,37.3,31.5,39.7,34.9,31.2,99,91,68,30.44,29.93,14,2,14,0.11
2013-5-2,31.5,29.0,26.6,31.2,28.6,26.4,99,99,95,30.48,30.38,0,0,0,0.00
2013-5-3,32.2,28.6,26.8,30.3,27.9,26.5,99,97,92,30.39,30.20,0,0,0,0.00
2013-5-4,60.1,41.1,30.9,45.6,36.5,30.7,99,85,54,30.21,30.14,8,2,8,0.40
2013-5-5,61.7,41.8,31.6,44.2,35.9,30.5,99,82,51,30.20,30.12,10,2,10,0.00
2013-5-6,74.7,50.0,28.8,50.5,37.9,28.5,99,70,31,30.14,30.06,9,1,9,0.00
2013-5-7,77.7,58.1,30.9,42.4,36.1,30.0,97,52,20,30.12,30.01,11,2,11,0.00
2013-5-8,79.2,56.0,33.8,52.2,39.5,32.8,99,61,21,30.08,30.00,24,2,24,0.00
2013-5-9,48.7,41.6,33.8,44.0,38.9,33.5,99,91,76,30.17,30.02,8,2,8,0.27
2013-5-10,60.8,41.0,29.1,36.2,30.1,23.7,98,70,32,30.16,30.01,13,4,13,0.01
2013-5-11,41.4,36.0,30.4,34.4,30.0,25.3,99,79,55,30.05,29.91,30,12,30,0.05
2013-5-12,50.9,36.7,26.6,30.1,24.3,17.9,99,65,30,30.13,30.05,21,3,21,0.05
2013-5-13,56.5,42.5,22.3,32.7,24.2,17.2,99,54,24,30.14,29.77,20,6,20,0.00
2013-5-14,81.5,60.4,36.7,48.4,40.7,32.5,87,52,25,29.83,29.49,29,7,29,0.00
2013-5-15,74.7,63.7,50.5,46.3,39.7,30.6,80,45,22,29.87,29.59,26,12,26,0.00
2013-5-16,76.3,59.8,41.7,51.1,37.0,21.1,99,51,14,30.09,29.86,22,3,22,0.00
2013-5-17,76.6,57.2,46.6,45.5,38.7,33.4,77,53,29,30.15,30.06,17,4,17,0.00
2013-5-18,71.2,60.4,49.6,62.7,57.2,49.4,99,90,68,30.10,29.93,13,4,13,1.45
2013-5-19,85.1,69.5,58.6,64.5,61.1,55.1,99,78,44,29.95,29.77,27,6,27,0.32
2013-5-20,76.1,64.2,55.6,64.0,59.4,54.4,99,87,51,29.81,29.59,23,6,23,0.00
2013-5-21,71.8,55.4,45.3,59.9,52.0,45.1,99,89,63,29.78,29.60,14,4,14,0.00
2013-5-22,53.8,47.4,41.2,52.0,46.7,40.4,99,98,86,30.05,29.76,17,3,17,0.17
2013-5-23,56.7,44.3,34.5,40.8,34.2,27.9,98,71,38,30.36,30.05,15,4,15,0.00
2013-5-24,56.7,34.5,31.3,54.0,33.7,31.0,99,97,61,30.43,30.36,6,1,4,0.00
2013-5-25,69.3,61.5,45.3,44.9,40.0,34.6,83,47,30,30.36,30.28,20,6,20,0.00
2013-5-26,72.7,56.5,38.3,47.5,35.9,25.6,99,54,18,30.36,30.18,23,5,23,0.00
2013-5-27,76.1,58.2,41.9,42.7,39.1,35.7,90,53,24,30.21,29.95,21,6,21,0.00
2013-5-28,63.5,57.4,52.3,55.4,48.8,41.6,98,74,57,29.96,29.77,13,4,13,0.00
2013-5-29,80.8,64.5,55.0,64.2,57.4,52.8,99,81,43,29.89,29.77,20,7,20,0.00
2013-5-30,80.1,67.7,60.4,69.9,65.0,60.2,99,92,61,29.85,29.68,23,7,23,0.00
2013-5-31,78.8,68.1,61.5,66.6,60.3,54.4,99,78,46,29.70,29.63,29,12,29,0.05
2013-6-1,45.7,40.3,39.6,44.6,40.0,39.3,99,99,96,29.89,29.81,9,5,9,0.00
2013-6-2,64.2,48.0,38.7,42.4,39.7,35.9,99,77,37,30.05,29.89,16,5,16,0.04
2013-6-3,68.0,52.4,34.9,53.3,36.9,26.5,99,63,24,30.15,30.04,15,3,15,0.00
2013-6-4,64.2,53.3,40.3,50.6,44.3,37.2,97,74,45,30.20,30.13,14,3,14,0.05
2013-6-5,55.6,50.2,47.5,54.0,49.8,47.2,99,99,93,30.19,30.06,10,3,10,0.05
2013-6-6,55.9,51.0,47.8,54.2,50.2,47.6,99,97,87,30.07,30.03,8,2,8,0.00
2013-6-7,69.6,55.5,40.6,59.6,45.7,40.4,99,74,43,30.08,29.99,15,3,15,0.00
2013-6-9,64.9,60.4,50.7,58.3,54.9,50.4,99,82,69,30.05,29.92,10,3,10,0.00
2013-6-10,81.9,67.4,57.7,65.4,59.5,55.7,99,78,50,29.92,29.84,13,3,13,0.00
2013-6-11,82.9,67.1,53.6,65.6,56.8,49.5,99,74,38,29.95,29.87,15,3,15,0.00
2013-6-12,84.7,69.5,48.7,65.1,51.3,47.6,99,57,29,29.96,29.84,13,2,13,0.00
2013-6-13,75.4,62.1,50.9,53.9,50.4,45.9,99,68,42,30.17,29.91,18,3,18,0.00
2013-6-14,77.7,62.8,44.8,62.0,47.1,39.4,99,64,28,30.20,30.02,15,4,15,0.00
2013-6-15,68.7,64.2,60.1,66.8,63.3,59.8,99,97,89,29.97,29.85,10,4,10,0.00
2013-6-16,78.8,64.8,54.1,61.1,55.4,45.7,99,77,33,29.98,29.85,29,8,29,0.04
2013-6-17,73.9,60.2,45.7,62.2,54.7,45.4,99,84,60,30.11,29.90,10,2,10,0.00
2013-6-18,77.4,59.3,39.9,57.3,42.8,35.8,99,62,25,30.18,30.10,17,3,17,0.00
2013-6-19,77.4,62.5,44.1,58.3,51.3,43.6,99,70,44,30.16,30.04,17,5,17,0.00
2013-6-20,75.9,65.2,57.0,68.8,62.2,56.7,99,91,70,30.14,30.07,18,3,18,0.00
2013-6-21,73.8,65.4,61.7,70.6,64.1,61.4,99,96,79,30.09,29.85,13,4,13,0.00
2013-6-28,72.0,66.3,61.3,68.1,63.5,59.2,99,91,74,29.80,29.71,13,5,13,0.00
2013-6-29,55.8,39.9,55.8,99.9,62.3,47.2,73,55,10,30.00,30.00,58,25,58,0.00
2013-7-1,83.5,72.8,52.2,62.3,52.8,45.9,99,53,32,30.23,30.00,58,3,9,0.00
2013-7-2,82.8,64.8,46.4,62.3,48.3,37.3,99,62,23,30.23,30.12,13,2,13,0.00
2013-7-3,84.9,66.1,47.7,62.3,51.1,42.1,99,65,25,30.14,30.02,15,3,15,0.00
2013-7-4,82.6,70.6,58.1,63.3,59.6,52.0,99,72,38,30.05,29.97,21,6,21,0.00
2013-7-5,84.6,75.3,64.9,62.9,58.8,51.7,81,59,34,30.01,29.92,28,11,28,0.00
2013-7-6,86.9,75.7,69.3,71.7,68.5,62.8,99,82,48,29.96,29.93,17,4,17,0.00
2013-7-7,87.1,76.0,68.0,73.7,70.9,67.7,99,86,60,29.99,29.92,23,3,23,0.00
2013-7-8,84.9,70.8,60.8,71.6,66.2,60.3,99,87,59,30.05,29.93,12,3,12,0.00
2013-7-9,77.0,68.6,60.3,76.3,68.0,60.0,99,98,89,30.05,29.79,21,4,21,0.00
2013-7-10,66.6,62.8,60.1,66.3,62.5,59.8,99,99,99,29.90,29.86,17,12,17,0.00
2013-7-11,84.0,75.1,59.2,69.5,56.4,46.8,99,56,32,30.16,29.90,15,5,15,0.00
2013-7-12,83.1,71.3,57.4,63.1,59.7,55.5,99,70,42,30.13,30.03,26,10,26,0.00
2013-7-14,86.2,76.3,65.7,67.6,64.1,59.1,99,69,44,30.26,30.14,22,8,22,0.00
2013-7-15,87.3,74.8,60.8,77.4,65.3,60.5,99,76,46,30.31,30.25,18,4,18,0.00
2013-7-16,88.7,79.1,67.8,75.2,70.9,67.5,99,78,54,30.27,30.20,25,8,25,0.00
2013-7-17,88.9,80.0,69.6,73.5,70.1,67.3,99,74,52,30.28,30.16,21,7,21,0.00
2013-7-18,89.8,80.5,69.3,74.0,70.6,68.4,99,74,52,30.17,29.76,35,12,35,0.00
2013-7-19,81.1,75.8,66.0,76.7,66.7,55.1,99,75,46,29.85,29.69,24,10,24,0.00
2013-7-20,54.3,51.2,48.9,45.8,45.3,44.8,89,80,70,30.07,30.05,1,0,0,0.00
2013-7-21,76.1,61.5,46.9,60.7,54.4,45.6,99,80,55,30.07,29.92,13,3,13,0.00
2013-7-22,79.5,67.0,57.9,72.7,62.8,54.8,99,87,65,29.93,29.68,24,9,24,0.00
2013-7-23,73.0,61.4,51.1,55.1,50.7,45.8,99,70,41,30.06,29.80,18,5,18,0.00
2013-7-24,74.5,60.0,45.3,59.3,51.7,45.1,99,77,49,30.11,30.02,17,4,17,0.00
2013-7-25,79.3,64.2,53.2,67.6,59.0,52.6,99,85,51,30.03,29.90,21,6,21,0.00
2013-7-26,69.1,56.8,46.0,62.9,54.8,45.6,99,93,75,30.04,29.89,17,4,17,0.00
2013-7-27,59.2,51.8,47.3,51.5,48.9,47.0,99,90,71,29.92,29.86,20,7,20,0.00
2013-7-28,57.7,52.4,47.1,57.2,52.1,46.9,99,99,98,30.06,29.88,18,6,18,0.00
2013-7-29,80.1,61.1,41.5,57.9,51.2,41.3,99,74,41,30.16,30.05,10,2,10,0.00
2013-7-30,69.1,62.6,55.6,62.9,59.3,55.3,99,90,71,30.18,30.08,16,5,16,0.00
2013-7-31,76.6,65.4,55.9,65.1,59.8,52.8,99,84,55,30.08,29.96,21,7,21,0.00
2013-8-1,79.5,64.1,55.4,58.6,54.5,51.5,99,73,40,29.99,29.88,17,6,17,0.00
2013-8-2,76.3,63.1,53.1,60.7,55.0,50.1,99,78,44,30.04,29.86,18,5,18,0.00
2013-8-5,68.2,62.2,54.7,66.1,61.6,54.4,99,98,89,30.00,29.85,13,4,13,0.00
2013-8-6,76.8,68.0,62.2,66.3,62.0,55.7,99,83,54,29.86,29.77,16,6,16,0.00
2013-8-7,75.7,64.1,50.5,62.9,53.4,44.1,99,73,36,30.05,29.85,15,5,15,0.00
2013-8-8,72.0,58.3,45.0,63.0,54.1,44.7,99,88,55,30.07,30.00,15,3,15,0.00
2013-8-9,69.4,61.8,54.0,59.4,53.7,48.6,99,77,52,30.10,29.98,21,8,21,0.00
2013-8-11,81.0,69.4,54.0,61.1,56.6,51.3,99,67,39,30.11,30.04,10,3,10,0.00
2013-8-12,75.6,61.3,46.4,62.1,53.9,45.8,99,79,52,30.11,30.00,18,4,18,0.00
2013-8-13,72.5,55.8,44.1,58.0,47.4,43.4,99,78,39,30.22,30.11,13,3,13,0.00
2013-8-14,75.2,54.9,42.3,51.6,47.1,42.0,99,80,34,30.22,30.13,10,2,10,0.00
2013-8-15,82.8,61.4,45.0,60.4,51.6,44.7,99,76,36,30.15,30.10,17,4,17,0.00
2013-8-16,82.8,64.2,45.7,71.7,53.4,45.2,99,74,33,30.20,30.14,13,2,13,0.00
2013-8-17,79.2,64.8,49.6,64.4,55.2,49.4,99,75,43,30.25,30.15,21,6,21,0.00
2013-8-18,79.5,65.8,52.3,60.9,55.8,52.1,99,74,41,30.20,30.06,24,6,24,0.00
2013-8-19,81.3,70.1,61.7,66.8,62.5,57.0,93,78,59,30.07,29.96,23,9,23,0.00
2013-8-20,84.4,74.3,63.3,70.4,67.7,63.0,99,82,60,30.01,29.92,23,8,23,0.00
2013-8-21,85.5,74.2,61.3,74.9,69.7,61.1,99,87,61,30.07,29.89,18,7,18,0.00
2013-8-22,83.7,67.8,50.0,61.3,54.2,45.7,99,69,28,30.20,30.06,12,3,12,0.00
2013-8-23,83.1,63.4,45.1,62.1,53.6,44.9,99,75,38,30.23,30.12,20,4,20,0.00
2013-8-24,80.8,70.3,58.5,69.9,62.5,56.6,99,78,53,30.21,30.02,26,9,26,0.00
2013-8-25,92.3,80.7,73.0,73.9,71.7,69.3,94,76,51,30.05,29.98,30,14,30,0.00
2013-8-26,93.7,75.2,67.1,77.1,71.9,66.8,99,91,55,30.10,29.95,30,4,30,0.00
2013-8-27,90.1,74.3,66.0,79.2,71.1,65.7,99,91,61,30.00,29.87,20,2,20,0.01
2013-8-28,92.3,72.3,61.0,75.6,66.3,60.7,99,85,40,30.10,29.98,8,1,8,0.00
2013-8-29,80.4,71.6,65.7,74.6,69.2,65.4,99,93,73,30.11,29.90,30,4,30,0.00
2013-8-30,83.1,69.6,58.5,69.3,63.7,58.2,99,83,53,30.00,29.91,15,3,15,0.00
2013-8-31,84.9,68.4,54.9,69.5,61.9,54.6,99,82,48,29.98,29.76,13,4,13,0.00
2013-9-1,69.3,66.0,64.4,67.0,64.5,61.4,99,95,78,29.82,29.73,20,8,20,0.00
2013-9-2,58.6,53.7,45.3,56.4,52.0,45.1,99,94,79,30.08,30.01,13,5,13,0.00
2013-9-3,75.9,59.1,43.2,57.4,51.1,42.7,99,78,45,30.08,29.98,17,6,17,0.00
2013-9-4,76.1,63.7,48.6,60.5,55.7,48.1,99,77,45,30.21,30.00,13,5,13,0.00
2013-9-5,48.4,45.6,43.3,48.1,45.3,43.1,99,99,99,30.30,30.22,2,1,2,0.00
2013-9-6,80.1,72.4,47.5,71.2,66.8,47.2,99,84,64,30.30,29.94,21,7,21,0.00
2013-9-7,85.3,68.9,54.5,77.1,64.5,54.2,99,87,60,30.15,29.92,11,3,11,0.00
2013-9-8,74.5,56.0,47.3,60.7,51.5,47.0,99,88,47,30.18,30.11,10,2,10,0.00
2013-9-9,77.7,69.3,62.1,75.5,68.5,61.6,99,97,87,29.90,29.70,13,3,13,0.00
2013-9-10,77.4,70.5,66.0,71.1,67.8,65.2,99,92,71,29.96,29.86,15,8,15,0.00
2013-9-11,78.4,66.2,56.1,66.1,60.1,52.2,99,84,46,30.06,29.95,23,7,23,0.00
2013-9-12,63.7,55.3,46.6,56.6,50.3,45.0,99,84,61,30.22,30.03,20,4,20,0.00
2013-9-13,70.3,51.0,38.8,52.1,44.7,38.6,99,82,43,30.27,30.11,13,2,13,0.00
2013-9-14,68.5,54.5,41.0,56.6,48.5,40.7,99,82,53,30.12,29.96,21,6,21,0.00
2013-9-15,57.2,54.5,53.4,55.3,53.5,48.1,99,97,80,30.18,29.98,12,3,12,0.00
2013-9-17,68.4,59.2,57.2,52.6,49.7,45.7,84,72,44,30.09,30.04,20,9,20,0.00
2013-9-18,65.1,59.2,55.8,64.8,58.5,-10.1,99,98,10,30.04,26.92,15,5,15,0.00
2013-9-19,79.0,67.5,62.1,74.2,66.5,61.8,99,97,77,29.85,29.69,24,5,24,0.00
2013-9-20,66.0,59.4,50.0,65.7,56.9,47.9,99,91,71,29.85,29.71,21,10,21,0.00
2013-9-21,61.9,48.4,35.2,49.9,43.4,35.0,99,85,49,30.00,29.84,18,7,18,0.00
2013-9-22,64.4,41.6,31.6,46.3,37.2,31.4,99,87,46,30.09,30.00,15,3,15,0.00
2013-9-23,72.0,60.1,47.7,52.0,49.6,47.2,99,71,45,30.09,30.01,21,7,21,0.00
2013-9-24,78.3,55.9,43.2,55.5,48.6,42.9,99,81,36,30.08,29.98,13,3,13,0.00
2013-9-25,80.6,55.5,41.7,58.2,48.0,41.5,99,82,33,30.05,29.97,12,2,12,0.00
2013-9-26,78.4,57.2,43.2,53.6,49.2,42.9,99,79,36,30.07,30.02,20,4,20,0.00
2013-9-27,79.2,64.7,52.9,58.1,53.2,49.0,96,68,45,30.08,29.96,27,8,27,0.00
2013-9-28,73.8,59.3,51.3,63.4,55.0,50.3,99,88,56,29.98,29.68,33,14,33,0.00
2013-9-29,71.1,53.2,41.9,50.4,45.5,39.1,99,81,33,29.99,29.90,18,8,18,0.00
2013-10-2,82.2,63.5,38.8,53.0,35.8,15.7,99,49,10,30.08,29.92,13,3,13,0.00
2013-10-3,60.4,53.6,50.4,54.6,51.9,50.1,99,94,76,30.02,29.93,9,2,9,0.00
2013-10-4,61.2,53.7,50.2,55.1,52.0,49.9,99,94,76,30.10,30.00,13,3,13,0.00
2013-10-5,56.5,52.8,50.2,56.0,52.5,49.9,99,99,99,30.08,29.73,12,4,12,0.00
2013-10-6,63.0,53.6,49.1,54.6,51.6,48.8,99,93,68,29.74,29.67,14,5,14,0.00
2013-10-10,76.3,61.1,39.6,45.7,42.9,38.8,99,55,29,30.05,29.80,13,3,13,0.00
2013-10-11,77.0,59.3,45.3,55.4,50.4,45.1,99,76,41,30.05,29.82,34,7,34,0.00
2013-10-12,61.3,56.2,45.9,54.4,46.4,38.6,99,71,49,30.05,29.77,29,14,29,0.00
2013-10-13,63.9,50.7,44.2,46.3,38.9,21.6,97,69,22,30.36,30.04,21,9,21,0.00
2013-10-14,58.5,47.9,29.8,42.5,36.1,29.6,99,66,41,30.41,30.15,15,3,15,0.00
2013-10-15,51.8,48.4,45.0,51.5,47.1,39.8,99,95,74,30.15,29.71,13,3,13,0.00
2013-10-16,46.2,41.0,32.5,45.8,39.8,32.3,99,96,74,29.89,29.73,12,4,12,0.00
2013-10-17,53.6,40.3,31.1,46.6,37.1,30.9,99,90,56,29.88,29.75,12,3,12,0.00
2013-10-18,54.1,40.4,30.6,42.7,38.0,30.1,99,93,45,29.88,29.76,15,3,15,0.00
2013-10-19,45.1,36.6,32.5,39.3,35.4,32.1,99,96,74,29.82,29.63,23,5,23,0.00
2013-10-20,41.5,35.4,32.4,39.7,34.5,32.1,99,97,76,29.77,29.69,10,4,10,0.00
2013-10-21,34.2,31.7,29.7,33.2,29.6,27.1,99,92,81,29.79,29.72,28,15,28,0.00
2013-10-22,35.4,33.2,31.1,35.2,32.5,30.2,99,97,89,29.95,29.75,18,7,18,0.00
2013-10-23,39.0,31.8,27.7,32.3,28.2,24.0,99,87,65,29.96,29.88,18,8,18,0.00
2013-10-24,37.8,32.8,29.5,33.5,30.2,27.8,99,91,76,30.19,29.95,18,9,18,0.00
2013-10-25,46.4,36.1,27.1,37.0,30.5,26.9,99,82,62,30.21,29.64,33,11,33,0.00
2013-10-26,46.4,38.4,33.4,38.3,33.2,29.2,99,82,61,30.00,29.65,21,9,21,0.00
2013-10-27,51.8,38.0,31.6,33.9,30.4,28.7,95,76,47,29.96,29.76,23,9,23,0.00
2013-10-28,47.1,33.0,22.6,22.0,19.0,14.4,92,60,29,30.44,30.37,11,2,11,0.00
2013-10-29,35.8,29.2,20.7,33.0,27.4,20.1,99,93,69,30.43,30.13,14,2,14,0.00
2013-10-30,48.2,40.6,33.3,47.9,40.4,33.0,99,99,99,30.13,29.71,13,4,13,0.00
2013-10-31,52.3,47.1,42.3,52.1,46.9,42.0,99,99,99,29.71,29.28,10,2,10,0.00
2013-11-1,42.4,39.4,35.2,42.2,39.1,34.8,99,99,99,29.75,29.28,18,7,18,0.00
2013-11-2,43.0,35.6,30.9,40.2,34.0,30.7,99,94,67,30.10,29.75,13,3,13,0.00
2013-11-3,48.2,35.2,27.9,38.2,32.1,27.6,99,90,58,30.19,30.08,21,4,21,0.00
2013-11-4,43.3,41.8,37.6,43.1,40.1,35.1,99,94,74,30.09,29.86,30,12,30,0.00
2013-11-5,44.4,36.3,30.9,35.3,32.1,28.2,99,86,57,30.20,29.96,21,5,21,0.00
2013-11-6,33.8,31.1,27.5,33.4,29.4,22.8,99,93,82,30.05,29.88,20,0,20,0.00
2013-11-7,33.3,28.7,24.4,29.3,24.8,20.4,93,85,76,30.12,30.05,15,8,15,0.00
2013-11-8,36.3,28.6,17.4,33.2,25.9,17.2,99,90,75,30.14,29.66,21,6,21,0.00
2013-11-9,36.0,34.3,32.9,35.7,33.3,31.2,99,96,88,29.96,29.57,26,13,26,0.00
2013-11-10,40.8,34.5,32.0,33.2,29.2,24.8,99,82,55,30.22,29.95,27,12,27,0.00
2013-11-11,32.2,22.5,17.6,31.9,18.1,13.9,99,83,65,30.52,30.00,21,9,21,0.00
2013-11-12,31.3,19.9,13.3,14.1,9.0,4.5,86,65,35,30.58,30.33,18,10,18,0.00
2013-11-13,45.5,31.7,16.7,29.7,20.6,7.8,78,64,46,30.33,29.78,34,16,34,0.00
2013-11-14,44.8,36.3,31.1,31.7,29.5,27.4,89,76,59,29.81,29.73,14,7,14,0.00
2013-11-15,51.4,36.8,27.7,37.4,32.6,27.4,99,86,56,29.82,29.74,20,5,20,0.00
2013-11-16,48.9,40.7,34.9,48.5,38.6,33.3,99,92,81,29.74,29.30,25,6,25,0.00
2013-11-17,49.5,42.5,36.9,49.2,42.2,36.3,99,99,98,29.38,29.24,29,10,29,0.00
2013-11-18,27.1,26.0,23.9,20.4,19.0,17.6,78,74,70,30.18,29.80,30,15,30,0.00
2013-11-19,40.1,28.6,16.2,21.4,18.2,14.0,96,67,43,30.25,30.00,27,8,27,0.00
2013-11-20,40.1,35.1,31.1,31.2,24.5,18.8,99,68,45,30.03,29.97,27,11,27,0.00
2013-11-21,33.6,30.2,24.1,33.4,29.9,23.8,99,99,99,30.35,30.03,17,5,17,0.00
2013-11-22,32.2,22.7,12.7,23.7,15.7,4.9,99,77,38,30.42,30.27,21,10,21,0.00
2013-11-23,16.2,9.8,7.0,10.5,-5.2,-38.3,90,63,10,30.59,30.38,58,19,58,0.00
2013-11-24,7.0,7.0,7.0,99.9,-37.5,-38.3,10,10,10,30.53,29.97,58,58,58,0.00
2013-11-25,7.0,6.8,7.0,99.9,-35.0,-38.3,10,10,10,29.87,29.76,58,58,58,0.00
2013-12-10,7.0,3.5,7.0,99.9,30.8,-38.3,10,10,10,30.00,29.87,58,58,58,0.00
2013-12-20,7.0,1.8,7.0,99.9,65.3,-38.3,10,10,10,29.88,29.87,58,58,58,0.00
2013-12-31,7.0,1.1,7.0,99.9,78.6,-38.3,10,10,10,30.03,29.87,58,58,58,0.00